Time;durP1;ratioP1;P1;durP2;ratioP2;P2;SDS_P1;SDS_P2;PMS_P1;PMS_P2;Temp;Humidity;BMP_temperature;BMP_pressure;BME280_temperature;BME280_humidity;BME280_pressure;Samples;Min_cycle;Max_cycle;Signal;HPM_P1;HPM_P2
2021/03/11 00:01:56;;;;;;;22.33;12.90;;;9.00;48.70;;;8.02;43.67;97998.66;4987176;28;20439;-81
2021/03/11 00:04:22;;;;;;;23.47;12.70;;;9.00;48.70;;;8.04;43.77;97992.13;4969721;28;20504;-81
2021/03/11 00:06:49;;;;;;;20.90;11.98;;;9.10;48.70;;;8.04;43.73;97989.50;4990140;28;20781;-81
2021/03/11 00:09:15;;;;;;;21.70;12.52;;;9.00;48.70;;;8.02;43.75;97985.47;4990785;28;20412;-81
2021/03/11 00:11:42;;;;;;;22.13;12.77;;;9.00;48.80;;;8.03;43.73;97987.09;4991492;28;20420;-82
2021/03/11 00:14:08;;;;;;;20.52;13.02;;;9.00;48.80;;;7.99;43.77;97983.28;4991290;28;20423;-82
2021/03/11 00:16:35;;;;;;;22.63;12.77;;;9.00;48.90;;;7.96;44.06;97986.38;4990308;28;20419;-81
2021/03/11 00:19:02;;;;;;;21.38;13.35;;;9.00;48.90;;;8.03;43.90;97984.47;4991656;28;20412;-80
2021/03/11 00:21:28;;;;;;;22.75;13.57;;;9.00;48.90;;;7.98;44.05;97984.28;4991513;28;20419;-81
2021/03/11 00:23:54;;;;;;;21.15;12.60;;;9.00;48.90;;;8.04;43.94;97988.72;4990601;28;20424;-81
2021/03/11 00:26:20;;;;;;;24.27;13.55;;;9.00;48.90;;;8.02;43.84;97981.03;4991188;28;20408;-82
2021/03/11 00:28:47;;;;;;;21.77;12.52;;;9.10;48.90;;;8.08;43.99;97985.41;4991043;28;20454;-81
2021/03/11 00:31:13;;;;;;;18.50;12.35;;;9.10;48.90;;;8.16;43.83;97977.19;4991788;28;20447;-82
2021/03/11 00:33:40;;;;;;;22.47;13.00;;;9.10;48.80;;;8.19;43.60;97983.88;4990750;28;20494;-81
2021/03/11 00:36:07;;;;;;;19.25;12.45;;;9.20;48.60;;;8.25;43.81;97988.25;4992378;28;20427;-81
2021/03/11 00:38:33;;;;;;;19.40;12.50;;;9.20;48.70;;;8.44;43.29;97991.69;4974475;28;20575;-82
2021/03/11 00:41:00;;;;;;;19.60;12.93;;;9.40;48.40;;;8.61;43.20;97984.78;4992039;28;20412;-80
2021/03/11 00:43:26;;;;;;;23.45;13.05;;;9.50;48.40;;;8.51;43.47;97977.41;4990799;28;20434;-80
2021/03/11 00:45:52;;;;;;;20.52;12.40;;;9.50;48.50;;;8.45;43.51;97972.22;4992057;28;20416;-81
2021/03/11 00:48:18;;;;;;;21.57;12.77;;;9.50;48.60;;;8.34;43.88;97970.34;4991695;28;20419;-81
2021/03/11 00:50:45;;;;;;;25.75;13.52;;;9.40;48.80;;;8.28;44.17;97969.34;4991772;28;20416;-80
2021/03/11 00:53:12;;;;;;;20.67;13.00;;;9.30;49.00;;;8.22;44.46;97975.50;4986620;28;20420;-80
2021/03/11 00:55:38;;;;;;;22.90;13.20;;;9.30;49.30;;;8.20;44.64;97972.28;4983934;28;20463;-81
2021/03/11 00:58:04;;;;;;;21.77;12.77;;;9.20;49.40;;;8.18;44.73;97970.91;4985424;28;20493;-81
2021/03/11 01:00:31;;;;;;;20.33;12.83;;;9.20;49.50;;;8.29;44.62;97978.06;4968726;28;20470;-82
2021/03/11 01:02:57;;;;;;;23.40;13.73;;;9.20;49.70;;;8.16;45.04;97981.66;4968899;28;20436;-82
2021/03/11 01:05:26;;;;;;;21.63;12.50;;;9.20;49.60;;;8.20;44.88;97988.09;4969323;28;20462;-81
2021/03/11 01:07:53;;;;;;;22.83;12.93;;;9.20;49.80;;;8.16;45.06;97987.75;5004974;28;20422;-81
2021/03/11 01:10:20;;;;;;;22.90;13.40;;;9.20;49.90;;;8.15;45.14;97978.22;4989076;28;20480;-81
2021/03/11 01:12:46;;;;;;;21.27;13.00;;;9.20;50.10;;;8.32;44.96;97973.19;4987591;28;20444;-81
2021/03/11 01:15:13;;;;;;;21.00;12.93;;;9.20;50.00;;;8.40;44.95;97969.44;5005523;28;20417;-81
2021/03/11 01:17:41;;;;;;;20.00;12.13;;;9.40;49.90;;;8.47;44.55;97967.53;5004340;28;20422;-81
2021/03/11 01:20:11;;;;;;;24.17;12.82;;;9.40;49.60;;;8.30;45.15;97963.84;5006531;28;20472;-79
2021/03/11 01:22:37;;;;;;;20.98;13.05;;;9.40;49.90;;;8.19;45.55;97960.16;5009096;28;20518;-79
2021/03/11 01:25:07;;;;;;;21.10;12.47;;;9.20;50.20;;;8.13;45.67;97948.63;5009420;28;20514;-79
2021/03/11 01:27:35;;;;;;;25.10;13.20;;;9.20;50.50;;;8.16;46.10;97935.00;5006142;28;20429;-81
2021/03/11 01:30:06;;;;;;;20.50;12.53;;;9.20;50.60;;;8.26;45.80;97936.31;4989707;28;20426;-80
2021/03/11 01:32:32;;;;;;;23.48;13.10;;;9.20;50.70;;;8.27;45.75;97938.72;5006086;28;20423;-82
2021/03/11 01:34:58;;;;;;;19.35;12.00;;;9.30;50.50;;;8.24;45.87;97917.28;4988985;28;20693;-81
2021/03/11 01:37:25;;;;;;;21.98;12.20;;;9.20;50.60;;;8.18;46.10;97912.91;5005712;28;20430;-80
2021/03/11 01:39:51;;;;;;;19.38;12.52;;;9.20;50.80;;;8.13;46.11;97890.63;4988683;28;20418;-81
2021/03/11 01:42:18;;;;;;;20.02;12.32;;;9.20;51.00;;;8.30;45.93;97884.72;5004513;28;20588;-81
2021/03/11 01:44:45;;;;;;;21.00;11.95;;;9.20;50.90;;;8.30;45.65;97879.44;4987613;28;20514;-81
2021/03/11 01:47:11;;;;;;;19.35;11.70;;;9.30;50.70;;;8.23;45.98;97869.00;5004992;28;20418;-80
2021/03/11 01:49:37;;;;;;;18.60;12.25;;;9.30;50.80;;;8.14;46.40;97863.22;5005474;28;20514;-80
2021/03/11 01:52:06;;;;;;;22.63;11.68;;;9.20;51.00;;;8.28;46.26;97849.84;5005318;28;20421;-81
2021/03/11 01:54:33;;;;;;;15.93;10.27;;;9.30;51.10;;;8.24;46.60;97838.16;4987560;28;20848;-80
2021/03/11 01:57:00;;;;;;;19.23;10.55;;;9.30;51.30;;;8.23;46.90;97852.38;5003510;28;20452;-80
2021/03/11 01:59:27;;;;;;;14.77;9.88;;;9.20;51.50;;;8.19;46.96;97838.84;5009795;28;20411;-79
2021/03/11 02:01:54;;;;;;;15.80;9.55;;;9.20;51.60;;;8.22;46.74;97834.94;5008999;28;20457;-80
2021/03/11 02:04:21;;;;;;;14.65;9.07;;;9.20;51.70;;;8.21;47.28;97831.50;4986757;28;20556;-80
2021/03/11 02:06:47;;;;;;;12.52;8.65;;;9.20;52.00;;;8.47;46.92;97825.88;5011805;28;20429;-78
2021/03/11 02:09:13;;;;;;;13.97;8.20;;;9.40;52.30;;;8.38;47.35;97816.66;5012388;28;20467;-78
2021/03/11 02:11:48;;;;;;;12.48;7.50;;;9.40;52.00;;;8.30;47.90;97806.41;5005045;28;20411;-80
2021/03/11 02:14:27;;;;;;;11.02;7.30;;;9.30;52.60;;;8.25;48.55;97792.28;5003444;28;20407;-78
2021/03/11 02:17:00;;;;;;;11.00;7.07;;;9.30;53.10;;;8.20;48.55;97787.69;4990546;28;20434;-80
2021/03/11 02:20:02;;;;;;;10.70;6.85;;;9.20;53.30;;;8.19;48.97;97782.66;4991311;28;20433;-80
2021/03/11 02:22:45;;;;;;;10.27;6.53;;;9.20;53.60;;;8.51;48.62;97776.06;5012739;28;20426;-80
2021/03/11 02:25:16;;;;;;;9.52;6.18;;;9.40;53.80;;;8.50;48.50;97763.91;4997194;28;20414;-79
2021/03/11 02:28:01;;;;;;;11.18;6.90;;;9.50;53.60;;;8.41;48.95;97763.47;4995276;28;20429;-81
2021/03/11 02:30:28;;;;;;;8.82;6.10;;;9.40;53.50;;;8.30;49.27;97752.84;4988616;28;20506;-80
2021/03/11 02:32:56;;;;;;;12.75;6.00;;;9.30;53.70;;;8.51;48.70;97747.06;4989962;28;20426;-80
2021/03/11 02:35:24;;;;;;;10.23;6.27;;;9.40;53.80;;;8.43;48.66;97736.84;5008509;28;20448;-81
2021/03/11 02:37:53;;;;;;;9.75;6.07;;;9.40;53.70;;;8.38;48.98;97726.97;5008055;28;20603;-80
2021/03/11 02:40:24;;;;;;;10.20;6.37;;;9.40;53.80;;;8.29;49.41;97727.50;5008990;28;20817;-81
2021/03/11 02:42:53;;;;;;;8.98;5.82;;;9.30;54.10;;;8.32;49.13;97727.91;4991642;28;20517;-81
2021/03/11 02:45:23;;;;;;;11.07;6.32;;;9.30;54.00;;;8.21;49.48;97718.09;5009314;28;20410;-80
2021/03/11 02:47:51;;;;;;;9.32;6.20;;;9.30;54.90;;;8.24;49.45;97722.13;5011170;28;20811;-81
2021/03/11 02:50:18;;;;;;;12.13;6.45;;;9.20;54.30;;;8.20;49.51;97718.31;5012858;28;20420;-81
2021/03/11 02:52:45;;;;;;;10.73;6.05;;;9.20;54.20;;;8.25;49.45;97719.25;5013117;28;20402;-80
2021/03/11 02:55:13;;;;;;;10.68;6.20;;;9.20;54.30;;;8.23;49.42;97707.31;5010640;28;20398;-78
2021/03/11 02:57:42;;;;;;;11.40;6.80;;;9.30;54.20;;;8.25;49.38;97705.28;5015845;28;20474;-80
2021/03/11 03:00:12;;;;;;;12.93;7.35;;;9.20;54.20;;;8.22;49.35;97701.25;4998811;28;20438;-79
2021/03/11 03:02:42;;;;;;;11.75;7.22;;;9.20;54.10;;;8.28;48.84;97691.63;5013505;28;20430;-78
2021/03/11 03:05:13;;;;;;;12.30;7.03;;;9.30;53.60;;;8.34;48.29;97685.47;5006043;28;20463;-81
2021/03/11 03:07:43;;;;;;;13.23;8.02;;;9.30;53.40;;;8.39;47.97;97689.03;4985829;28;20431;-82
2021/03/11 03:10:11;;;;;;;12.97;7.50;;;9.30;53.10;;;8.30;48.18;97676.38;5001723;28;20471;-81
2021/03/11 03:12:39;;;;;;;13.98;8.05;;;9.30;53.00;;;8.20;48.14;97679.56;5002928;28;20517;-81
2021/03/11 03:15:08;;;;;;;12.15;7.82;;;9.30;53.00;;;8.31;47.84;97670.09;4983377;28;20414;-81
2021/03/11 03:17:35;;;;;;;14.75;8.07;;;9.30;52.80;;;8.22;47.75;97661.69;5001009;28;20426;-80
2021/03/11 03:20:07;;;;;;;14.07;7.83;;;9.30;52.80;;;8.20;47.96;97657.66;5000261;28;20489;-81
2021/03/11 03:22:36;;;;;;;13.63;7.30;;;9.20;52.90;;;8.22;48.03;97656.41;5000893;28;20442;-80
2021/03/11 03:25:07;;;;;;;12.30;7.60;;;9.20;52.80;;;8.16;48.24;97650.22;4984137;28;20504;-81
2021/03/11 03:27:33;;;;;;;13.65;8.15;;;9.20;52.90;;;8.22;49.31;97643.22;5000432;28;20422;-81
2021/03/11 03:29:59;;;;;;;18.45;7.93;;;9.20;54.20;;;8.16;50.20;97646.78;4984266;28;20573;-82
2021/03/11 03:32:26;;;;;;;15.77;8.33;;;9.20;55.00;;;8.20;51.56;97647.94;5000447;28;20491;-81
2021/03/11 03:34:52;;;;;;;11.98;7.63;;;9.20;55.50;;;8.17;50.55;97645.75;4999562;28;20469;-81
2021/03/11 03:37:18;;;;;;;13.50;7.95;;;9.20;55.20;;;8.15;50.12;97642.53;4981857;28;20508;-80
2021/03/11 03:39:45;;;;;;;12.57;7.07;;;9.20;54.80;;;8.16;51.55;97644.16;4983429;28;20828;-81
2021/03/11 03:42:13;;;;;;;12.97;7.87;;;9.20;56.30;;;8.47;50.20;97645.66;5004967;28;20445;-81
2021/03/11 03:44:43;;;;;;;11.88;7.75;;;9.30;55.00;;;8.52;49.42;97632.56;5006198;28;20410;-81
2021/03/11 03:47:10;;;;;;;12.13;7.18;;;9.50;54.60;;;8.48;50.43;97624.34;5005541;28;20418;-82
2021/03/11 03:49:38;;;;;;;12.60;7.00;;;9.50;55.20;;;8.70;49.27;97613.97;4987412;28;20713;-81
2021/03/11 03:52:07;;;;;;;11.77;6.72;;;9.50;54.60;;;8.72;48.73;97617.16;5004477;28;20414;-82
2021/03/11 03:54:39;;;;;;;14.35;6.97;;;9.60;54.00;;;8.64;49.90;97622.03;5005542;28;20406;-81
2021/03/11 03:57:13;;;;;;;11.60;6.80;;;9.70;54.70;;;8.55;49.83;97618.94;5010193;28;20437;-79
2021/03/11 03:59:41;;;;;;;12.02;6.85;;;9.50;54.80;;;8.63;50.34;97626.50;5012997;28;20421;-78
2021/03/11 04:02:11;;;;;;;12.38;6.30;;;9.50;55.30;;;8.61;50.66;97617.19;5009549;28;20441;-82
2021/03/11 04:04:42;;;;;;;10.20;6.43;;;9.50;55.80;;;8.51;51.35;97612.50;5007603;28;20413;-80
2021/03/11 04:07:13;;;;;;;14.88;6.55;;;9.60;56.00;;;8.72;52.62;97613.75;5002840;28;20418;-81
2021/03/11 04:09:40;;;;;;;10.80;5.25;;;9.60;57.20;;;8.81;51.92;97623.69;5004058;28;20448;-81
2021/03/11 04:12:10;;;;;;;9.90;5.10;;;9.70;57.00;;;8.95;51.76;97624.22;5004163;28;20812;-81
2021/03/11 04:14:38;;;;;;;9.55;5.00;;;9.80;56.90;;;8.93;52.62;97621.84;5003891;28;20488;-81
2021/03/11 04:17:05;;;;;;;7.97;4.55;;;9.90;57.30;;;9.05;52.44;97626.25;5004095;28;20533;-81
2021/03/11 04:19:34;;;;;;;10.05;4.68;;;9.90;57.30;;;9.23;51.95;97620.81;5003348;28;20738;-81
2021/03/11 04:22:01;;;;;;;11.60;4.57;;;10.10;57.20;;;9.20;52.38;97611.50;4986308;28;20434;-79
2021/03/11 04:24:29;;;;;;;11.82;5.10;;;10.20;57.10;;;9.24;51.96;97591.53;5003357;28;20419;-81
2021/03/11 04:26:57;;;;;;;6.53;4.53;;;10.20;57.00;;;9.27;52.09;97598.16;4986554;28;20716;-81
2021/03/11 04:29:25;;;;;;;8.68;5.38;;;10.20;56.90;;;9.16;53.29;97604.31;5005218;28;20422;-82
2021/03/11 04:31:52;;;;;;;11.43;4.30;;;10.20;57.60;;;9.16;53.17;97607.75;5000288;28;20423;-81
2021/03/11 04:34:19;;;;;;;8.98;4.22;;;10.10;57.60;;;9.35;52.32;97602.25;4982562;28;20787;-81
2021/03/11 04:36:48;;;;;;;8.75;5.07;;;10.20;57.30;;;9.21;52.99;97597.25;5001905;28;20871;-81
2021/03/11 04:39:14;;;;;;;11.50;4.57;;;10.20;57.50;;;9.37;52.51;97600.19;4986290;28;20414;-81
2021/03/11 04:41:41;;;;;;;13.80;4.60;;;10.20;57.60;;;9.39;52.69;97585.69;5001165;28;20417;-81
2021/03/11 04:44:07;;;;;;;12.82;4.90;;;10.30;57.50;;;9.40;52.56;97597.84;5001150;28;20433;-81
2021/03/11 04:46:34;;;;;;;11.15;4.30;;;10.30;57.50;;;9.31;52.89;97599.28;5006940;28;20422;-79
2021/03/11 04:49:02;;;;;;;7.70;4.40;;;10.30;57.70;;;9.25;53.18;97595.72;5007441;28;20426;-77
2021/03/11 04:51:30;;;;;;;12.07;4.85;;;10.20;58.00;;;9.30;53.41;97600.31;5006047;28;20402;-78
2021/03/11 04:53:56;;;;;;;15.32;4.95;;;10.20;58.30;;;9.33;53.04;97598.00;5007410;28;20424;-81
2021/03/11 04:56:23;;;;;;;9.63;4.65;;;10.30;58.00;;;9.38;53.06;97607.06;5007132;28;20406;-81
2021/03/11 04:58:50;;;;;;;9.23;4.10;;;10.30;58.00;;;9.36;53.33;97601.22;5003963;28;20441;-81
2021/03/11 05:01:22;;;;;;;21.83;4.70;;;10.30;58.30;;;9.32;53.78;97591.09;5010390;28;20415;-80
2021/03/11 05:03:50;;;;;;;7.65;4.10;;;10.30;58.50;;;9.32;53.87;97596.38;5015442;28;20406;-82
2021/03/11 05:06:17;;;;;;;7.30;4.35;;;10.30;58.60;;;9.27;54.18;97591.03;5013447;28;20686;-80
2021/03/11 05:08:43;;;;;;;11.50;4.20;;;10.20;58.60;;;9.33;53.88;97592.72;5004997;28;20856;-80
2021/03/11 05:11:12;;;;;;;8.48;4.18;;;10.30;58.80;;;9.26;54.12;97596.53;5004179;28;20407;-82
2021/03/11 05:13:38;;;;;;;9.45;4.40;;;10.20;58.80;;;9.41;54.02;97588.88;5003402;28;20419;-81
2021/03/11 05:16:05;;;;;;;10.10;4.13;;;10.30;58.90;;;9.41;54.23;97593.38;4990024;28;20423;-79
2021/03/11 05:18:32;;;;;;;6.57;4.18;;;10.30;58.90;;;9.44;53.90;97596.34;5007245;28;20433;-81
2021/03/11 05:20:59;;;;;;;7.57;4.07;;;10.40;58.70;;;9.47;53.54;97595.06;5005093;28;20421;-82
2021/03/11 05:23:26;;;;;;;11.93;4.43;;;10.40;58.80;;;9.47;53.91;97605.66;5002684;28;20466;-81
2021/03/11 05:25:53;;;;;;;10.67;4.00;;;10.40;58.90;;;9.37;54.28;97590.41;5004046;28;20905;-80
2021/03/11 05:28:20;;;;;;;8.70;4.20;;;10.40;59.00;;;9.37;54.32;97600.97;5007380;28;20491;-80
2021/03/11 05:30:47;;;;;;;12.05;4.10;;;10.30;59.10;;;9.36;54.58;97601.22;5005403;28;20461;-82
2021/03/11 05:33:13;;;;;;;8.02;4.07;;;10.30;59.10;;;9.40;54.34;97587.28;5004519;28;20420;-79
2021/03/11 05:35:40;;;;;;;10.70;4.00;;;10.30;59.20;;;9.30;54.29;97589.75;5008362;28;20403;-80
2021/03/11 05:38:07;;;;;;;9.18;4.20;;;10.30;59.20;;;9.22;54.98;97588.31;5007592;28;20426;-82
2021/03/11 05:40:34;;;;;;;6.85;3.95;;;10.20;59.60;;;9.39;54.67;97587.53;5002262;28;20410;-81
2021/03/11 05:43:03;;;;;;;7.80;4.25;;;10.30;59.70;;;9.41;54.79;97591.53;5002001;28;20438;-81
2021/03/11 05:45:30;;;;;;;8.85;4.07;;;10.40;59.60;;;9.43;54.81;97591.28;4985238;28;20480;-81
2021/03/11 05:47:57;;;;;;;8.80;4.40;;;10.30;59.60;;;9.45;54.89;97597.16;5001634;28;20425;-81
2021/03/11 05:50:24;;;;;;;9.80;3.95;;;10.40;59.60;;;9.41;54.67;97588.06;5002001;28;20455;-79
2021/03/11 05:52:51;;;;;;;10.45;3.92;;;10.40;59.80;;;9.35;55.50;97594.31;5005848;28;20422;-79
2021/03/11 05:55:19;;;;;;;9.00;4.40;;;10.30;60.00;;;9.30;55.48;97595.03;4988600;28;20678;-79
2021/03/11 05:57:46;;;;;;;7.60;4.57;;;10.30;60.00;;;9.30;55.72;97585.28;4988037;28;20512;-81
2021/03/11 06:00:15;;;;;;;8.30;4.40;;;10.30;60.30;;;9.43;55.40;97591.28;5002905;28;20413;-82
2021/03/11 06:02:43;;;;;;;8.73;4.10;;;10.30;60.30;;;9.44;55.42;97600.81;5002586;28;20837;-82
2021/03/11 06:05:13;;;;;;;11.32;4.18;;;10.30;60.40;;;9.48;55.22;97586.09;5002919;28;20658;-80
2021/03/11 06:07:43;;;;;;;9.20;4.30;;;10.40;60.30;;;9.43;55.46;97581.53;5000925;28;20596;-81
2021/03/11 06:10:12;;;;;;;6.47;4.18;;;10.40;60.20;;;9.48;55.55;97564.94;4984193;28;20419;-80
2021/03/11 06:12:39;;;;;;;8.90;3.75;;;10.40;60.40;;;9.41;55.59;97562.47;5002059;28;20418;-81
2021/03/11 06:15:14;;;;;;;6.35;3.63;;;10.40;60.20;;;9.46;55.78;97559.94;5003290;28;20441;-81
2021/03/11 06:17:42;;;;;;;6.55;3.65;;;10.30;60.70;;;9.45;55.76;97558.31;5005578;28;20797;-82
2021/03/11 06:20:10;;;;;;;8.70;3.80;;;10.40;60.50;;;9.55;55.35;97555.81;5007019;28;20413;-82
2021/03/11 06:22:37;;;;;;;9.05;4.07;;;10.40;60.50;;;9.51;55.67;97535.41;5007889;28;20427;-82
2021/03/11 06:25:07;;;;;;;8.07;3.70;;;10.50;60.60;;;9.53;55.51;97530.69;5006655;28;20425;-84
2021/03/11 06:27:33;;;;;;;11.75;3.58;;;10.40;60.70;;;9.45;56.60;97531.91;5003139;28;20756;-83
2021/03/11 06:30:02;;;;;;;13.43;3.45;;;10.40;61.20;;;9.59;55.50;97521.81;5003337;28;20568;-80
2021/03/11 06:32:28;;;;;;;10.10;3.63;;;10.50;60.40;;;9.58;55.41;97509.63;4983705;28;20434;-80
2021/03/11 06:34:54;;;;;;;9.02;3.80;;;10.50;60.20;;;9.59;55.38;97533.19;5001236;28;20476;-81
2021/03/11 06:37:37;;;;;;;7.28;3.60;;;10.50;60.10;;;9.59;55.04;97513.88;5001651;28;20525;-80
2021/03/11 06:40:15;;;;;;;8.38;3.28;;;10.60;59.90;;;9.75;54.55;97518.34;5004000;28;20419;-80
2021/03/11 06:42:41;;;;;;;6.82;3.63;;;10.60;59.60;;;9.75;54.37;97521.00;5005445;28;20488;-80
2021/03/11 06:48:24;;;;;;;8.77;3.75;;;10.70;59.40;;;9.75;54.33;97512.25;5179720;27;20368;-80
2021/03/11 06:50:52;;;;;;;14.88;3.78;;;10.70;59.10;;;9.77;54.14;97518.13;5174776;27;20839;-82
2021/03/11 06:53:21;;;;;;;9.50;3.88;;;10.70;59.20;;;9.75;54.16;97515.72;5159496;27;20400;-82
2021/03/11 06:55:47;;;;;;;14.73;3.70;;;10.70;59.10;;;9.80;54.35;97515.78;5160087;27;20397;-82
2021/03/11 06:58:18;;;;;;;6.15;3.00;;;10.70;59.00;;;9.92;53.52;97511.16;5160433;27;20397;-82
2021/03/11 07:00:45;;;;;;;10.67;3.47;;;10.90;58.70;;;9.90;53.56;97502.72;5160937;27;20492;-83
2021/03/11 07:03:12;;;;;;;18.70;4.40;;;10.80;58.60;;;10.09;53.42;97521.72;5162370;27;20402;-82
2021/03/11 07:05:41;;;;;;;11.50;3.53;;;10.90;58.60;;;9.98;53.51;97512.06;5161536;27;20458;-81
2021/03/11 07:08:11;;;;;;;8.80;3.13;;;10.90;58.30;;;10.06;53.27;97507.16;5163619;27;20434;-83
2021/03/11 07:10:38;;;;;;;12.85;3.55;;;11.00;58.30;;;10.24;52.95;97529.09;5162741;27;20421;-81
2021/03/11 07:13:05;;;;;;;25.00;3.60;;;11.10;58.20;;;10.18;52.89;97522.94;5161074;27;20398;-82
2021/03/11 07:15:33;;;;;;;50.50;5.40;;;11.10;57.90;;;10.20;53.09;97526.16;5161026;27;20398;-82
2021/03/11 07:18:01;;;;;;;8.98;3.08;;;11.10;58.00;;;10.17;52.87;97526.63;5162982;27;20402;-81
2021/03/11 07:20:29;;;;;;;89.07;6.15;;;11.10;57.90;;;10.25;52.98;97514.81;5183604;27;20417;-81
2021/03/11 07:23:06;;;;;;;10.07;3.30;;;11.20;58.00;;;10.23;53.10;97506.31;5185624;27;20444;-81
2021/03/11 07:25:35;;;;;;;6.32;3.40;;;11.20;58.00;;;10.24;53.09;97513.22;5168919;27;20401;-81
2021/03/11 07:28:02;;;;;;;15.65;3.60;;;11.20;58.10;;;10.25;53.34;97504.25;5161872;27;20401;-81
2021/03/11 07:30:29;;;;;;;8.40;3.17;;;11.20;58.30;;;10.27;53.40;97518.03;5158993;27;20436;-81
2021/03/11 07:33:00;;;;;;;17.90;3.15;;;11.20;58.40;;;10.29;53.48;97511.47;5160797;27;20471;-81
2021/03/11 07:35:29;;;;;;;16.48;3.20;;;11.20;58.50;;;10.37;53.35;97511.03;5161763;27;20402;-80
2021/03/11 07:38:05;;;;;;;7.43;2.83;;;11.30;58.50;;;10.38;53.61;97528.47;5160669;27;20473;-81
2021/03/11 07:40:33;;;;;;;6.72;2.67;;;11.30;58.50;;;10.42;53.37;97512.94;5160727;27;20446;-80
2021/03/11 07:43:00;;;;;;;13.75;2.80;;;11.30;58.40;;;10.57;53.03;97528.19;5161419;27;20437;-80
2021/03/11 07:45:27;;;;;;;6.30;2.53;;;11.40;58.40;;;10.62;53.15;97520.28;5159889;27;20437;-80
2021/03/11 07:47:54;;;;;;;7.85;2.55;;;11.50;58.40;;;10.64;53.17;97512.91;5160672;27;20713;-80
2021/03/11 07:50:20;;;;;;;10.50;2.63;;;11.50;58.20;;;10.72;53.25;97521.22;5158144;27;20422;-80
2021/03/11 07:52:47;;;;;;;7.85;3.08;;;11.60;58.40;;;10.68;53.16;97509.50;5159306;27;20405;-80
2021/03/11 07:55:14;;;;;;;5.78;2.53;;;11.60;58.20;;;10.72;53.21;97494.75;5176684;27;20410;-79
2021/03/11 07:57:45;;;;;;;7.22;3.50;;;11.60;58.20;;;10.76;53.28;97506.41;5161188;27;20430;-78
2021/03/11 08:00:15;;;;;;;10.55;2.60;;;11.70;58.10;;;10.82;52.97;97496.69;5148524;27;20457;-79
2021/03/11 08:02:52;;;;;;;7.10;2.60;;;11.70;58.10;;;10.89;52.93;97515.03;5144410;27;20486;-80
2021/03/11 08:05:26;;;;;;;25.77;2.97;;;11.70;58.10;;;10.94;52.81;97494.69;5142698;27;20503;-80
2021/03/11 08:08:16;;;;;;;5.22;2.22;;;11.80;58.00;;;10.95;52.98;97491.00;5143691;27;20453;-80
2021/03/11 08:10:45;;;;;;;4.22;2.58;;;11.80;58.00;;;11.08;52.73;97489.78;5141942;27;20674;-81
2021/03/11 08:13:35;;;;;;;5.78;2.22;;;11.90;57.80;;;11.10;52.31;97493.78;5143895;27;20405;-81
2021/03/11 08:16:22;;;;;;;6.60;2.30;;;12.00;57.50;;;11.13;52.07;97497.75;5144029;27;20677;-81
2021/03/11 08:18:49;;;;;;;7.20;2.60;;;12.00;57.40;;;11.22;52.21;97481.16;5144393;27;20437;-81
2021/03/11 08:21:44;;;;;;;13.35;3.28;;;12.10;57.20;;;11.45;51.81;97480.03;5142867;27;20495;-81
2021/03/11 08:24:40;;;;;;;6.22;2.40;;;12.20;57.10;;;11.48;51.44;97491.97;5144878;27;20438;-81
2021/03/11 08:27:42;;;;;;;7.63;2.50;;;12.30;56.70;;;11.58;51.31;97489.38;5096574;27;20481;-81
2021/03/11 08:30:49;;;;;;;7.57;3.05;;;12.40;56.60;;;11.57;51.14;97488.63;5143363;27;20476;-81
2021/03/11 08:33:45;;;;;;;11.40;3.13;;;12.40;56.30;;;11.56;50.94;97476.41;5141230;27;20653;-81
2021/03/11 08:36:36;;;;;;;7.03;2.40;;;12.40;56.20;;;11.58;50.95;97487.53;5141929;27;20473;-83
2021/03/11 08:39:29;;;;;;;7.13;2.40;;;12.40;56.20;;;11.70;50.77;97468.00;5145080;27;20453;-82
2021/03/11 08:41:57;;;;;;;4.90;2.28;;;12.50;56.00;;;11.84;50.26;97451.41;5143874;27;20614;-84
2021/03/11 08:44:45;;;;;;;7.93;2.08;;;12.60;55.70;;;11.89;50.48;97443.47;5146219;27;20402;-83
2021/03/11 08:47:12;;;;;;;8.65;2.85;;;12.70;55.60;;;11.90;50.24;97439.75;5130413;27;20481;-83
2021/03/11 08:49:44;;;;;;;36.05;4.28;;;12.70;55.60;;;11.85;50.73;97452.22;5148043;27;20459;-83
2021/03/11 08:52:42;;;;;;;18.92;2.60;;;12.80;55.90;;;11.92;51.29;97428.91;5148583;27;20443;-83
2021/03/11 08:55:40;;;;;;;4.30;2.00;;;12.70;56.30;;;12.02;50.94;97424.47;5146540;27;20402;-81
2021/03/11 08:58:25;;;;;;;7.90;2.75;;;12.90;56.30;;;12.02;51.12;97482.81;5145785;27;20561;-82
2021/03/11 09:00:59;;;;;;;19.33;2.17;;;12.90;56.20;;;12.03;51.74;97431.31;5143739;27;20407;-84
2021/03/11 09:03:41;;;;;;;3.80;2.00;;;12.90;57.30;;;12.23;50.96;97422.66;5150412;27;20406;-85
2021/03/11 09:06:11;;;;;;;9.00;2.20;;;13.00;56.40;;;12.16;51.19;97434.59;5151294;27;20827;-85
2021/03/11 09:08:46;;;;;;;20.27;2.50;;;13.00;56.60;;;12.19;51.44;97421.56;5144385;27;20420;-84
2021/03/11 09:11:16;;;;;;;12.88;2.00;;;13.00;56.70;;;12.30;51.25;97417.13;5142378;27;20480;-85
2021/03/11 09:13:43;;;;;;;54.40;6.30;;;13.10;56.50;;;12.39;50.89;97415.56;5144035;27;20498;-85
2021/03/11 09:16:12;;;;;;;79.97;9.23;;;13.20;56.30;;;12.54;50.91;97423.56;5144028;27;20398;-85
2021/03/11 09:18:38;;;;;;;14.23;3.00;;;13.30;56.30;;;12.60;50.78;97413.75;5145148;27;20463;-85
2021/03/11 09:21:08;;;;;;;249.02;23.80;;;13.40;56.00;;;12.61;50.64;97405.50;5510722;22;20432;-82
2021/03/11 09:23:41;;;;;;;7.78;1.92;;;13.40;56.00;;;12.70;50.24;97411.09;5122744;28;20443;-84
2021/03/11 09:26:22;;;;;;;9.57;1.77;;;13.50;55.50;;;12.68;49.91;97424.66;5123181;28;20416;-83
2021/03/11 09:28:48;;;;;;;6.95;1.90;;;13.50;55.40;;;12.82;49.77;97426.78;5123242;28;20400;-84
2021/03/11 09:31:22;;;;;;;11.40;2.07;;;13.60;55.20;;;12.87;49.60;97421.47;5122341;28;20412;-84
2021/03/11 09:33:48;;;;;;;10.15;1.98;;;13.60;55.00;;;12.92;49.41;97437.44;5120782;28;20697;-85
2021/03/11 09:36:16;;;;;;;11.43;1.95;;;13.70;54.70;;;12.80;49.50;97441.13;5121906;28;20404;-83
2021/03/11 09:38:43;;;;;;;5.03;1.92;;;13.70;54.60;;;12.81;49.43;97418.00;5121342;28;20393;-84
2021/03/11 09:41:10;;;;;;;7.28;1.77;;;13.60;54.70;;;12.93;49.22;97415.13;5123317;28;20762;-84
2021/03/11 09:43:38;;;;;;;3.90;1.53;;;13.70;54.60;;;13.10;48.86;97400.50;5122815;28;20557;-84
2021/03/11 09:46:09;;;;;;;5.07;1.77;;;13.80;54.30;;;13.13;48.63;97407.97;5102532;28;20442;-84
2021/03/11 09:48:39;;;;;;;4.22;1.90;;;13.90;53.90;;;13.16;48.66;97399.44;5103674;28;20420;-84
2021/03/11 09:51:08;;;;;;;4.00;1.58;;;14.00;54.00;;;13.25;48.21;97394.38;5121863;28;20428;-84
2021/03/11 09:53:39;;;;;;;6.70;1.80;;;14.10;53.80;;;13.26;48.57;97396.00;5121915;28;20396;-84
2021/03/11 09:56:11;;;;;;;4.00;1.63;;;14.10;53.90;;;13.27;48.35;97394.94;5121841;28;20518;-84
2021/03/11 09:58:49;;;;;;;8.07;2.17;;;14.10;53.70;;;13.37;48.37;97392.28;5123381;28;20415;-84
2021/03/11 10:01:25;;;;;;;5.78;1.90;;;14.10;54.00;;;13.45;48.41;97398.91;5104889;28;20474;-84
2021/03/11 10:03:51;;;;;;;2.80;1.40;;;14.20;54.00;;;13.32;48.89;97378.16;5122996;28;20476;-84
2021/03/11 10:06:20;;;;;;;4.10;1.73;;;14.20;54.00;;;13.40;48.76;97393.56;5126088;28;20526;-84
2021/03/11 10:08:51;;;;;;;27.33;4.28;;;14.10;54.20;;;13.47;48.74;97375.47;5126176;28;20411;-84
2021/03/11 10:12:14;;;;;;;13.52;2.22;;;14.30;54.20;;;13.56;48.90;97380.00;5125739;28;20706;-81
2021/03/11 10:14:43;;;;;;;6.53;1.92;;;14.30;54.30;;;13.66;48.71;97376.50;5122147;28;20445;-81
2021/03/11 10:17:19;;;;;;;70.35;7.65;;;14.50;54.00;;;13.72;48.82;97383.41;5126981;28;20484;-81
2021/03/11 10:19:45;;;;;;;6.95;1.50;;;14.60;54.20;;;13.72;49.03;97387.94;5106473;28;20427;-81
2021/03/11 10:22:17;;;;;;;5.25;1.75;;;14.50;54.50;;;13.70;49.46;97379.41;5124193;28;20428;-81
2021/03/11 10:24:48;;;;;;;67.82;7.55;;;14.50;54.80;;;13.85;48.99;97390.00;5108343;28;20428;-80
2021/03/11 10:27:24;;;;;;;2.90;1.60;;;14.60;54.60;;;13.75;49.60;97374.09;5124476;28;20507;-81
2021/03/11 10:30:10;;;;;;;6.47;1.30;;;14.60;54.60;;;13.83;49.21;97389.50;5122083;28;20400;-81
2021/03/11 10:32:39;;;;;;;6.88;1.48;;;14.60;54.70;;;13.84;49.61;97375.09;5121706;28;20424;-83
2021/03/11 10:35:09;;;;;;;4.82;1.20;;;14.60;54.80;;;13.62;50.31;97387.94;5122187;28;20858;-83
2021/03/11 10:37:37;;;;;;;5.45;1.67;;;14.50;55.30;;;13.59;50.62;97393.81;5123022;28;20405;-83